Time;durP1;ratioP1;P1;durP2;ratioP2;P2;SDS_P1;SDS_P2;PMS_P1;PMS_P2;Temp;Humidity;BMP_temperature;BMP_pressure;BME280_temperature;BME280_humidity;BME280_pressure;Samples;Min_cycle;Max_cycle;Signal;HPM_P1;HPM_P2
2021/11/28 00:01:14;;;;;;;5.03;4.55;;;10.30;80.00;;;;;;5052464;28;20266;-74
2021/11/28 00:03:39;;;;;;;4.20;3.80;;;10.20;80.40;;;;;;5047611;28;20676;-74
2021/11/28 00:06:12;;;;;;;4.00;3.70;;;10.20;80.40;;;;;;5048647;28;20185;-74
2021/11/28 00:11:19;;;;;;;4.35;3.97;;;10.10;81.00;;;;;;5051746;28;20292;-72
2021/11/28 00:16:11;;;;;;;3.88;3.53;;;10.00;81.00;;;;;;5052366;28;20176;-72
2021/11/28 00:18:37;;;;;;;3.97;3.35;;;10.00;80.90;;;;;;5052206;28;20189;-74
2021/11/28 00:21:05;;;;;;;4.28;3.47;;;10.00;81.00;;;;;;5049754;28;20183;-73
2021/11/28 00:23:30;;;;;;;5.63;3.75;;;10.00;80.90;;;;;;5057440;28;20641;-73
2021/11/28 00:25:56;;;;;;;4.95;4.35;;;9.90;81.30;;;;;;5054359;28;20175;-73
2021/11/28 00:28:23;;;;;;;5.82;4.10;;;9.90;81.10;;;;;;5057008;28;20570;-73
2021/11/28 00:30:49;;;;;;;4.38;3.72;;;9.80;81.10;;;;;;5054001;28;20187;-74
2021/11/28 00:33:15;;;;;;;6.70;3.45;;;9.80;81.00;;;;;;5054281;28;20187;-73
2021/11/28 00:35:40;;;;;;;4.37;3.93;;;9.80;81.10;;;;;;5046284;28;20187;-73
2021/11/28 00:38:06;;;;;;;4.10;3.67;;;9.80;81.10;;;;;;5052881;28;20207;-73
2021/11/28 00:40:32;;;;;;;6.23;3.83;;;9.80;81.10;;;;;;5049567;28;20203;-73
2021/11/28 00:42:59;;;;;;;5.88;4.05;;;9.80;81.30;;;;;;5051999;28;20284;-72
2021/11/28 00:45:25;;;;;;;5.28;3.97;;;9.80;81.30;;;;;;5053606;28;20245;-72
2021/11/28 00:47:50;;;;;;;4.60;4.20;;;9.70;81.20;;;;;;5058988;28;20593;-72
2021/11/28 00:52:43;;;;;;;3.78;3.45;;;9.70;81.40;;;;;;5057273;28;20245;-72
2021/11/28 00:55:10;;;;;;;7.60;4.23;;;9.70;81.60;;;;;;5053098;28;20179;-72
2021/11/28 00:57:37;;;;;;;5.57;4.40;;;9.70;81.90;;;;;;5049272;28;20280;-72
2021/11/28 01:00:05;;;;;;;6.40;4.37;;;9.70;82.00;;;;;;5048630;28;20175;-72
2021/11/28 01:02:32;;;;;;;9.33;5.40;;;9.70;82.10;;;;;;5051829;28;20310;-71
2021/11/28 01:04:58;;;;;;;7.63;5.00;;;9.50;82.50;;;;;;5053934;28;20195;-73
2021/11/28 01:07:26;;;;;;;4.87;4.47;;;9.50;82.20;;;;;;5048189;28;20598;-73
2021/11/28 01:09:53;;;;;;;5.30;4.00;;;9.50;82.30;;;;;;5048816;28;20211;-73
2021/11/28 01:12:19;;;;;;;5.67;4.63;;;9.50;82.30;;;;;;5052723;28;20673;-72
2021/11/28 01:14:45;;;;;;;6.83;4.90;;;9.60;82.10;;;;;;5052600;28;20187;-72
2021/11/28 01:17:11;;;;;;;13.80;5.17;;;9.50;82.60;;;;;;5049487;28;20293;-73
2021/11/28 01:19:37;;;;;;;5.33;4.57;;;9.50;83.00;;;;;;5055612;28;20266;-72
2021/11/28 01:22:07;;;;;;;5.50;4.30;;;9.50;83.00;;;;;;5053206;28;20181;-73
2021/11/28 01:24:33;;;;;;;6.60;4.57;;;9.50;82.50;;;;;;5048489;28;21742;-73
2021/11/28 01:27:00;;;;;;;7.67;4.87;;;9.60;83.00;;;;;;5052392;28;20215;-72
2021/11/28 01:29:26;;;;;;;5.33;4.83;;;9.50;83.30;;;;;;5056806;28;20228;-72
2021/11/28 01:31:52;;;;;;;8.38;4.70;;;9.40;83.20;;;;;;5047124;28;20661;-73
2021/11/28 01:34:18;;;;;;;6.17;4.27;;;9.40;83.10;;;;;;5045972;28;20183;-72
2021/11/28 01:36:44;;;;;;;9.33;4.20;;;9.40;82.80;;;;;;5050896;28;20629;-72
2021/11/28 01:39:10;;;;;;;4.07;3.27;;;9.40;82.90;;;;;;5044350;28;20195;-72
2021/11/28 01:41:37;;;;;;;4.30;3.87;;;9.40;82.80;;;;;;5047729;28;20262;-72
2021/11/28 01:44:04;;;;;;;7.70;4.30;;;9.40;82.80;;;;;;5052772;28;20242;-72
2021/11/28 01:46:31;;;;;;;5.50;4.70;;;9.40;83.10;;;;;;5047763;28;20683;-73
2021/11/28 01:48:57;;;;;;;6.33;4.60;;;9.40;83.20;;;;;;5058967;28;20181;-72
2021/11/28 01:51:23;;;;;;;4.43;4.03;;;9.40;83.50;;;;;;5045093;28;20175;-73
2021/11/28 01:53:51;;;;;;;7.50;4.17;;;9.40;83.50;;;;;;5055219;28;20194;-73
2021/11/28 01:56:17;;;;;;;5.27;3.47;;;9.40;83.40;;;;;;5050879;28;20187;-73
2021/11/28 01:58:43;;;;;;;4.77;4.37;;;9.40;83.60;;;;;;5055304;28;20179;-73
2021/11/28 02:01:14;;;;;;;5.03;3.63;;;9.30;84.10;;;;;;5049368;28;20183;-73
2021/11/28 02:03:42;;;;;;;3.27;3.07;;;9.40;83.70;;;;;;5050781;28;20227;-72
2021/11/28 02:06:10;;;;;;;5.70;3.63;;;9.40;83.70;;;;;;5054302;28;20568;-73
2021/11/28 02:08:37;;;;;;;4.50;4.03;;;9.40;83.50;;;;;;5053019;28;20736;-73
2021/11/28 02:11:04;;;;;;;4.07;3.87;;;9.30;83.70;;;;;;5053976;28;20172;-73
2021/11/28 02:13:30;;;;;;;9.40;4.13;;;9.30;83.70;;;;;;5050730;28;20214;-73
2021/11/28 02:15:56;;;;;;;4.13;3.27;;;9.30;83.80;;;;;;5047775;28;20254;-73
2021/11/28 02:18:24;;;;;;;5.37;4.00;;;9.30;83.80;;;;;;5054174;28;20445;-73
2021/11/28 02:20:52;;;;;;;3.73;3.43;;;9.20;84.50;;;;;;5050348;28;20309;-73
2021/11/28 02:23:18;;;;;;;5.43;3.80;;;9.20;84.60;;;;;;5048206;28;20219;-73
2021/11/28 02:25:44;;;;;;;4.37;2.90;;;9.20;84.10;;;;;;5054846;28;20176;-73
2021/11/28 02:28:10;;;;;;;4.00;3.60;;;9.20;84.00;;;;;;5052545;28;20657;-73
2021/11/28 02:30:36;;;;;;;5.17;3.43;;;9.20;84.20;;;;;;5042614;28;20241;-73
2021/11/28 02:33:03;;;;;;;4.23;3.83;;;9.20;84.30;;;;;;5051318;28;20582;-73
2021/11/28 02:35:32;;;;;;;3.27;2.97;;;9.20;84.00;;;;;;5047004;28;20578;-73
2021/11/28 02:37:59;;;;;;;4.00;3.10;;;9.10;84.40;;;;;;5050330;28;20642;-73
2021/11/28 02:40:26;;;;;;;3.27;2.97;;;9.10;84.10;;;;;;5052158;28;20187;-73
2021/11/28 02:42:53;;;;;;;3.70;3.33;;;9.10;84.20;;;;;;5047529;28;20216;-73
2021/11/28 02:45:22;;;;;;;4.57;3.17;;;9.10;84.30;;;;;;5052255;28;20241;-73
2021/11/28 02:47:49;;;;;;;4.40;3.57;;;9.10;84.20;;;;;;5053765;28;20176;-72
2021/11/28 02:50:18;;;;;;;4.40;3.80;;;9.10;84.30;;;;;;5053317;28;20190;-72
2021/11/28 02:52:53;;;;;;;3.17;2.97;;;9.10;84.30;;;;;;5055307;28;20202;-73
2021/11/28 02:55:28;;;;;;;4.53;3.13;;;9.10;84.00;;;;;;5051272;28;20253;-73
2021/11/28 02:57:56;;;;;;;4.27;3.50;;;9.10;84.00;;;;;;5054885;28;20728;-73
2021/11/28 03:00:23;;;;;;;3.73;3.40;;;9.00;84.60;;;;;;5051848;28;20244;-73
2021/11/28 03:02:49;;;;;;;7.00;3.27;;;9.00;84.60;;;;;;5057975;28;20297;-73
2021/11/28 03:05:15;;;;;;;3.33;3.13;;;9.00;84.60;;;;;;5052698;28;20275;-72
2021/11/28 03:07:41;;;;;;;3.13;2.90;;;9.10;84.50;;;;;;5056823;28;20180;-73
2021/11/28 03:10:33;;;;;;;2.93;2.73;;;9.10;84.60;;;;;;5050456;28;20206;-74
2021/11/28 03:12:59;;;;;;;4.10;3.20;;;9.10;84.30;;;;;;5053252;28;20191;-72
2021/11/28 03:15:26;;;;;;;3.00;2.70;;;9.10;84.50;;;;;;5053716;28;20190;-72
2021/11/28 03:17:52;;;;;;;4.40;3.33;;;9.00;84.60;;;;;;5052561;28;20194;-72
2021/11/28 03:20:18;;;;;;;3.30;3.00;;;9.00;84.70;;;;;;5049110;28;20183;-72
2021/11/28 03:22:48;;;;;;;5.60;2.73;;;8.90;84.60;;;;;;5050266;28;20747;-72
2021/11/28 03:25:17;;;;;;;4.53;3.10;;;8.80;85.00;;;;;;5053296;28;20184;-72
2021/11/28 03:27:44;;;;;;;3.30;3.07;;;8.80;85.10;;;;;;5050466;28;20187;-73
2021/11/28 03:30:10;;;;;;;5.50;4.07;;;8.70;85.20;;;;;;5054099;28;20233;-73
2021/11/28 03:32:36;;;;;;;5.03;3.73;;;8.70;85.80;;;;;;5056150;28;20645;-73
2021/11/28 03:35:03;;;;;;;5.37;3.93;;;8.60;86.40;;;;;;5054417;28;20208;-72
2021/11/28 03:37:30;;;;;;;4.63;2.97;;;8.50;86.40;;;;;;5055505;28;20182;-71
2021/11/28 03:39:56;;;;;;;6.03;3.07;;;8.50;86.20;;;;;;5056026;28;20253;-72
2021/11/28 03:42:22;;;;;;;3.13;2.87;;;8.50;86.30;;;;;;5049135;28;20239;-72
2021/11/28 03:44:49;;;;;;;3.87;3.53;;;8.40;86.20;;;;;;5053287;28;20225;-72
2021/11/28 03:47:15;;;;;;;5.20;3.83;;;8.40;86.40;;;;;;5052846;28;20183;-72
2021/11/28 03:49:41;;;;;;;3.30;3.10;;;8.30;86.90;;;;;;5053410;28;20682;-74
2021/11/28 03:52:08;;;;;;;3.87;3.40;;;8.30;86.90;;;;;;5051282;28;20180;-74
2021/11/28 03:54:34;;;;;;;3.90;3.63;;;8.30;87.70;;;;;;5056604;28;20190;-74
2021/11/28 03:57:00;;;;;;;2.97;2.73;;;8.30;87.70;;;;;;5050456;28;20171;-74
2021/11/28 03:59:26;;;;;;;4.57;3.50;;;8.30;87.90;;;;;;5054044;28;20677;-71
2021/11/28 04:01:52;;;;;;;5.97;3.13;;;8.30;87.50;;;;;;5051090;28;20195;-73
2021/11/28 04:04:17;;;;;;;5.10;3.60;;;8.30;87.10;;;;;;5060095;28;20221;-73
2021/11/28 04:06:43;;;;;;;3.33;2.83;;;8.30;87.10;;;;;;5053605;28;20187;-73
2021/11/28 04:09:09;;;;;;;3.00;2.80;;;8.40;87.00;;;;;;5053489;28;20732;-73
2021/11/28 04:11:35;;;;;;;2.77;2.50;;;8.40;86.90;;;;;;5053834;28;20592;-73
2021/11/28 04:14:01;;;;;;;3.30;3.03;;;8.40;87.00;;;;;;5053214;28;20270;-73
2021/11/28 04:16:27;;;;;;;5.13;3.00;;;8.40;87.80;;;;;;5050595;28;20576;-73
2021/11/28 04:18:52;;;;;;;3.30;3.03;;;8.40;87.80;;;;;;5054171;28;20233;-73
2021/11/28 04:21:18;;;;;;;6.47;2.87;;;8.40;87.40;;;;;;5053674;28;20190;-73
2021/11/28 04:23:44;;;;;;;2.80;2.43;;;8.50;87.40;;;;;;5051692;28;20214;-73
2021/11/28 04:26:10;;;;;;;5.27;2.43;;;8.50;87.50;;;;;;5052494;28;20645;-72
2021/11/28 04:28:36;;;;;;;5.23;3.13;;;8.60;87.20;;;;;;5052544;28;20179;-73
2021/11/28 04:31:02;;;;;;;4.17;3.37;;;8.60;87.50;;;;;;5052370;28;20233;-71
2021/11/28 04:33:27;;;;;;;4.03;3.10;;;8.50;87.70;;;;;;5047784;28;20183;-72
2021/11/28 04:35:53;;;;;;;4.20;2.30;;;8.50;87.40;;;;;;5049245;28;20567;-72
2021/11/28 04:38:19;;;;;;;4.27;3.03;;;8.50;87.20;;;;;;5049810;28;20180;-73
2021/11/28 04:40:44;;;;;;;3.97;2.70;;;8.60;87.00;;;;;;5045552;28;20240;-73
2021/11/28 04:43:10;;;;;;;3.30;3.00;;;8.50;87.20;;;;;;5043134;28;20218;-73
2021/11/28 04:45:36;;;;;;;3.20;2.97;;;8.50;87.20;;;;;;5045902;28;20188;-73
2021/11/28 04:48:02;;;;;;;3.10;2.67;;;8.40;87.60;;;;;;5042608;28;20578;-72
2021/11/28 04:50:30;;;;;;;2.80;2.60;;;8.40;88.10;;;;;;5053960;28;20186;-73
2021/11/28 04:52:56;;;;;;;2.90;2.30;;;8.40;88.60;;;;;;5051760;28;20578;-73
2021/11/28 04:55:22;;;;;;;2.17;2.07;;;8.40;88.10;;;;;;5041022;28;20186;-73
2021/11/28 04:57:47;;;;;;;2.53;2.00;;;8.40;87.70;;;;;;5052783;28;20195;-72
2021/11/28 05:00:20;;;;;;;2.20;1.77;;;8.40;87.80;;;;;;5045082;28;20187;-73
2021/11/28 05:02:47;;;;;;;4.47;2.20;;;8.40;87.90;;;;;;5048106;28;20211;-73
2021/11/28 05:05:12;;;;;;;2.10;2.00;;;8.40;87.70;;;;;;5051619;28;20286;-72
2021/11/28 05:07:38;;;;;;;2.57;2.37;;;8.30;87.50;;;;;;5049054;28;21127;-72
2021/11/28 05:10:05;;;;;;;4.43;2.07;;;8.30;87.60;;;;;;5047934;28;20191;-73
2021/11/28 05:12:32;;;;;;;2.40;2.30;;;8.30;87.60;;;;;;5046749;28;20741;-72
2021/11/28 05:14:57;;;;;;;3.63;2.40;;;8.20;88.10;;;;;;5054584;28;20183;-73
2021/11/28 05:17:23;;;;;;;3.93;2.20;;;8.20;88.00;;;;;;5048453;28;20268;-73
2021/11/28 05:19:49;;;;;;;2.30;2.20;;;8.20;88.00;;;;;;5050357;28;20259;-73
2021/11/28 05:22:16;;;;;;;2.63;2.47;;;8.20;88.20;;;;;;5052315;28;20257;-73
2021/11/28 05:24:42;;;;;;;2.83;2.43;;;8.10;88.50;;;;;;5038757;28;20179;-72
2021/11/28 05:27:08;;;;;;;2.23;2.10;;;8.10;88.70;;;;;;5045008;28;20196;-72
2021/11/28 05:29:35;;;;;;;3.40;3.10;;;8.10;89.20;;;;;;5046509;28;20344;-72
2021/11/28 05:32:01;;;;;;;3.67;2.33;;;8.00;89.70;;;;;;5046420;28;20182;-72
2021/11/28 05:34:26;;;;;;;3.47;3.10;;;8.00;89.90;;;;;;5049660;28;20239;-72
2021/11/28 05:36:52;;;;;;;4.63;2.60;;;8.00;89.60;;;;;;5048617;28;20187;-72
2021/11/28 05:39:18;;;;;;;3.33;2.37;;;7.90;89.80;;;;;;5044364;28;20265;-73
2021/11/28 05:41:43;;;;;;;2.83;2.43;;;7.90;90.00;;;;;;5045869;28;20174;-73
2021/11/28 05:44:10;;;;;;;3.17;2.87;;;7.90;89.70;;;;;;5047990;28;20207;-73
2021/11/28 05:46:35;;;;;;;4.10;2.87;;;7.90;89.40;;;;;;5046260;28;20191;-72
2021/11/28 05:49:01;;;;;;;4.43;2.80;;;8.00;89.40;;;;;;5049858;28;20229;-72
2021/11/28 05:51:27;;;;;;;1.97;1.87;;;8.00;89.10;;;;;;5050958;28;20280;-72
2021/11/28 05:53:53;;;;;;;2.20;2.10;;;8.00;89.00;;;;;;5050117;28;20601;-71
2021/11/28 05:56:18;;;;;;;2.53;1.97;;;8.00;88.80;;;;;;5048854;28;20186;-73
2021/11/28 05:58:44;;;;;;;4.47;3.03;;;8.00;88.70;;;;;;5047922;28;20345;-73
2021/11/28 06:01:11;;;;;;;4.17;2.17;;;7.90;89.20;;;;;;5052528;28;20189;-73
2021/11/28 06:03:36;;;;;;;3.03;2.83;;;7.80;90.40;;;;;;5049855;28;20736;-73
2021/11/28 06:06:02;;;;;;;2.83;2.53;;;7.80;90.00;;;;;;5051080;28;20261;-73
2021/11/28 06:08:28;;;;;;;3.07;2.87;;;7.90;89.70;;;;;;5050868;28;20285;-73
2021/11/28 06:10:54;;;;;;;3.13;2.83;;;7.90;89.90;;;;;;5051702;28;20217;-72
2021/11/28 06:13:20;;;;;;;3.30;2.70;;;7.90;90.40;;;;;;5049763;28;20191;-73
2021/11/28 06:15:45;;;;;;;3.40;2.50;;;8.00;90.30;;;;;;5044888;28;20190;-73
2021/11/28 06:18:11;;;;;;;2.67;2.43;;;8.00;90.00;;;;;;5049279;28;20565;-72
2021/11/28 06:20:37;;;;;;;3.17;2.53;;;8.10;90.00;;;;;;5051624;28;20668;-72
2021/11/28 06:23:04;;;;;;;3.00;2.80;;;8.20;90.00;;;;;;5050843;28;20236;-72
2021/11/28 06:25:30;;;;;;;5.53;3.03;;;8.40;89.70;;;;;;5049326;28;20633;-73
2021/11/28 06:27:55;;;;;;;2.83;2.63;;;8.60;89.80;;;;;;5049328;28;20976;-73
2021/11/28 06:30:21;;;;;;;3.70;2.53;;;8.70;88.70;;;;;;5050761;28;20190;-73
2021/11/28 06:32:47;;;;;;;2.13;1.93;;;8.80;88.50;;;;;;5050433;28;20667;-73
2021/11/28 06:35:13;;;;;;;2.30;2.20;;;9.00;88.50;;;;;;5052256;28;20187;-73
2021/11/28 06:37:39;;;;;;;3.03;2.17;;;9.40;89.20;;;;;;5050423;28;20278;-70
2021/11/28 06:40:06;;;;;;;2.73;2.33;;;9.90;88.90;;;;;;5047283;28;20303;-73
2021/11/28 06:42:32;;;;;;;3.07;1.80;;;10.20;86.20;;;;;;5056276;28;20206;-73
2021/11/28 06:44:57;;;;;;;1.63;1.52;;;10.60;84.60;;;;;;5053025;28;20649;-73
2021/11/28 06:47:23;;;;;;;1.98;1.98;;;11.00;85.20;;;;;;5052902;28;20325;-73
2021/11/28 06:49:49;;;;;;;2.88;2.45;;;11.50;85.20;;;;;;5055106;28;20238;-72
2021/11/28 06:52:15;;;;;;;1.60;1.50;;;12.10;84.70;;;;;;5054575;28;20190;-73
2021/11/28 06:54:40;;;;;;;2.50;2.13;;;12.60;82.10;;;;;;5052247;28;20192;-73
2021/11/28 06:57:07;;;;;;;3.08;2.25;;;13.20;81.50;;;;;;5053770;28;20184;-73
2021/11/28 06:59:32;;;;;;;2.28;2.10;;;13.70;80.40;;;;;;5051499;28;20330;-73
2021/11/28 07:01:58;;;;;;;4.07;2.55;;;14.00;76.00;;;;;;5052425;28;20914;-73
2021/11/28 07:04:24;;;;;;;2.63;2.40;;;14.20;75.80;;;;;;5053958;28;20306;-72
2021/11/28 07:06:50;;;;;;;2.75;2.47;;;14.50;76.70;;;;;;5050809;28;20266;-72
2021/11/28 07:09:16;;;;;;;2.90;2.70;;;14.80;76.20;;;;;;5047710;28;20265;-72
2021/11/28 07:11:42;;;;;;;5.13;2.53;;;15.20;75.50;;;;;;5052785;28;20219;-73
2021/11/28 07:14:07;;;;;;;5.32;2.88;;;15.60;75.10;;;;;;5054046;28;20321;-73
2021/11/28 07:16:33;;;;;;;3.55;3.10;;;16.20;74.60;;;;;;5054507;28;20272;-72
2021/11/28 07:18:59;;;;;;;4.28;3.05;;;16.80;74.10;;;;;;5054261;28;20217;-71
2021/11/28 07:21:25;;;;;;;4.35;3.03;;;17.30;71.60;;;;;;5052859;28;20178;-72
2021/11/28 07:23:51;;;;;;;3.05;2.85;;;17.50;67.90;;;;;;5054921;28;20221;-72
2021/11/28 07:26:18;;;;;;;2.78;2.58;;;17.10;67.60;;;;;;5052868;28;20212;-71
2021/11/28 07:28:45;;;;;;;3.13;2.13;;;16.80;68.10;;;;;;5055321;28;20189;-71
2021/11/28 07:31:11;;;;;;;2.90;2.70;;;16.50;69.20;;;;;;5049685;28;20268;-72
2021/11/28 07:33:37;;;;;;;2.53;2.33;;;16.30;69.10;;;;;;5052863;28;20190;-72
2021/11/28 07:36:07;;;;;;;4.20;3.55;;;16.10;69.30;;;;;;5056195;28;20189;-76
2021/11/28 07:38:34;;;;;;;3.38;3.08;;;15.90;69.50;;;;;;5050377;28;20218;-76
2021/11/28 07:41:01;;;;;;;2.95;2.45;;;15.50;69.90;;;;;;5054528;28;20179;-73
2021/11/28 07:43:27;;;;;;;2.65;2.40;;;15.20;70.70;;;;;;5053062;28;20536;-73
2021/11/28 07:45:53;;;;;;;3.33;3.10;;;15.10;71.00;;;;;;5052478;28;20192;-73
2021/11/28 07:48:19;;;;;;;3.65;2.35;;;15.10;71.90;;;;;;5056105;28;20271;-73
2021/11/28 07:50:45;;;;;;;2.50;2.22;;;15.30;70.90;;;;;;5057473;28;20717;-72
2021/11/28 07:53:11;;;;;;;3.45;2.38;;;15.30;71.30;;;;;;5054959;28;20274;-73
2021/11/28 07:55:36;;;;;;;2.70;2.50;;;15.40;71.20;;;;;;5049602;28;20758;-73
2021/11/28 07:58:03;;;;;;;3.92;2.50;;;15.30;71.00;;;;;;5057415;28;20669;-72
2021/11/28 08:00:29;;;;;;;3.20;2.30;;;15.30;71.20;;;;;;5055870;28;20203;-72
2021/11/28 08:02:55;;;;;;;10.55;2.35;;;15.30;70.80;;;;;;5052629;28;20322;-72
2021/11/28 08:05:21;;;;;;;2.33;2.15;;;15.20;71.30;;;;;;5052394;28;20668;-72
2021/11/28 08:07:46;;;;;;;2.40;2.30;;;15.20;71.80;;;;;;5049766;28;20186;-74
2021/11/28 08:10:12;;;;;;;2.50;2.30;;;15.20;71.40;;;;;;5049015;28;20650;-72
2021/11/28 08:12:38;;;;;;;2.55;2.45;;;15.00;71.70;;;;;;5049915;28;20203;-73
2021/11/28 08:15:07;;;;;;;2.00;1.75;;;14.90;71.60;;;;;;5054137;28;20542;-73
2021/11/28 08:17:37;;;;;;;2.28;2.17;;;14.70;72.20;;;;;;5051364;28;20262;-73
2021/11/28 08:20:05;;;;;;;2.05;1.60;;;14.70;72.30;;;;;;5050854;28;20241;-74
2021/11/28 08:22:31;;;;;;;2.35;1.95;;;14.50;72.20;;;;;;5054441;28;20203;-74
2021/11/28 08:24:57;;;;;;;2.17;1.67;;;14.30;73.20;;;;;;5052811;28;20263;-71
2021/11/28 08:27:22;;;;;;;1.52;1.52;;;14.30;73.30;;;;;;5047425;28;20312;-72
2021/11/28 08:29:48;;;;;;;2.08;1.90;;;14.30;73.20;;;;;;5045158;28;20627;-74
2021/11/28 08:32:14;;;;;;;1.77;1.67;;;14.30;72.90;;;;;;5051871;28;20738;-71
2021/11/28 08:34:40;;;;;;;2.03;1.88;;;14.40;73.10;;;;;;5052760;28;20191;-72
2021/11/28 08:37:05;;;;;;;1.85;1.75;;;14.40;73.30;;;;;;5045591;28;20195;-72
2021/11/28 08:39:32;;;;;;;2.15;1.75;;;14.50;73.00;;;;;;5052028;28;20636;-71
2021/11/28 08:41:58;;;;;;;1.58;1.48;;;14.50;72.90;;;;;;5047641;28;20176;-73
2021/11/28 08:44:24;;;;;;;1.70;1.60;;;14.50;73.10;;;;;;5054295;28;20218;-73
2021/11/28 08:46:50;;;;;;;2.05;1.95;;;14.70;73.30;;;;;;5051673;28;20194;-73
2021/11/28 08:49:17;;;;;;;2.22;1.45;;;14.90;73.30;;;;;;5050170;28;20175;-72
2021/11/28 08:51:43;;;;;;;1.73;1.17;;;15.00;72.70;;;;;;5046074;28;20187;-72
2021/11/28 08:54:13;;;;;;;2.10;2.00;;;15.10;72.50;;;;;;5048811;28;20198;-72
2021/11/28 08:56:40;;;;;;;1.98;1.88;;;15.30;72.40;;;;;;5052392;28;20183;-72
2021/11/28 08:59:06;;;;;;;2.53;2.30;;;15.30;72.20;;;;;;5050917;28;20195;-70
2021/11/28 09:01:32;;;;;;;1.92;1.92;;;15.40;72.20;;;;;;5052963;28;20181;-72
2021/11/28 09:03:58;;;;;;;2.53;1.73;;;15.50;72.00;;;;;;5051231;28;20352;-72
2021/11/28 09:06:23;;;;;;;2.00;1.90;;;15.50;71.10;;;;;;5050422;28;20933;-73
2021/11/28 09:08:49;;;;;;;4.25;2.10;;;15.50;71.40;;;;;;5046476;28;20191;-72
2021/11/28 09:11:15;;;;;;;2.58;2.25;;;15.50;70.90;;;;;;5047102;28;20272;-73
2021/11/28 09:13:42;;;;;;;2.17;2.08;;;15.60;71.40;;;;;;5048353;28;20215;-72
2021/11/28 09:16:10;;;;;;;2.42;2.22;;;15.70;71.50;;;;;;5048380;28;20178;-75
2021/11/28 09:19:16;;;;;;;2.47;1.80;;;15.70;71.30;;;;;;5048537;28;20187;-74
2021/11/28 09:21:29;;;;;;;1.65;1.58;;;15.60;71.40;;;;;;5044356;28;20228;-73
2021/11/28 09:26:44;;;;;;;2.70;1.90;;;15.70;71.20;;;;;;5048198;28;20186;-72
2021/11/28 09:29:11;;;;;;;3.20;2.10;;;15.60;71.40;;;;;;5045267;28;20192;-73
2021/11/28 09:31:36;;;;;;;2.40;2.13;;;15.60;71.60;;;;;;5042406;28;20245;-71
2021/11/28 09:34:03;;;;;;;4.25;2.63;;;15.60;71.60;;;;;;5050723;28;20187;-71
2021/11/28 09:36:31;;;;;;;2.75;2.55;;;15.50;71.70;;;;;;5050068;28;20286;-72
2021/11/28 09:38:58;;;;;;;5.00;2.42;;;15.50;71.60;;;;;;5045779;28;20750;-72
2021/11/28 09:41:30;;;;;;;3.08;2.47;;;15.50;71.50;;;;;;5049375;28;20187;-73
2021/11/28 09:44:02;;;;;;;2.25;2.10;;;15.50;71.90;;;;;;5051591;28;20213;-73
2021/11/28 09:46:28;;;;;;;2.47;2.20;;;15.60;72.00;;;;;;5045711;28;20191;-73
2021/11/28 09:49:01;;;;;;;2.47;2.20;;;15.70;71.90;;;;;;5047159;28;20191;-72
2021/11/28 09:51:27;;;;;;;5.57;2.30;;;15.70;71.70;;;;;;5048579;28;20203;-71
2021/11/28 09:53:56;;;;;;;3.00;2.10;;;15.80;71.20;;;;;;5054610;28;20340;-71
2021/11/28 09:56:23;;;;;;;1.73;1.48;;;15.80;71.20;;;;;;5059156;28;20266;-71
2021/11/28 09:58:50;;;;;;;1.05;1.05;;;15.80;70.10;;;;;;5054612;28;20986;-71
2021/11/28 10:01:16;;;;;;;2.95;1.40;;;15.80;68.60;;;;;;5057028;28;20190;-71
2021/11/28 10:03:43;;;;;;;1.42;1.33;;;15.60;69.60;;;;;;5056863;28;20696;-71
2021/11/28 10:06:09;;;;;;;1.48;1.35;;;15.40;70.60;;;;;;5056252;28;20625;-71
2021/11/28 10:08:35;;;;;;;0.80;0.80;;;15.30;70.30;;;;;;5064785;28;20676;-71
2021/11/28 10:11:24;;;;;;;1.27;1.17;;;15.30;69.00;;;;;;5056139;28;20184;-71
2021/11/28 10:13:52;;;;;;;1.58;0.85;;;15.30;70.40;;;;;;5056772;28;20183;-71
2021/11/28 10:16:18;;;;;;;1.15;1.15;;;15.30;69.10;;;;;;5053690;28;20179;-71
2021/11/28 10:18:45;;;;;;;1.40;1.30;;;15.30;69.90;;;;;;5055556;28;20232;-70
2021/11/28 10:21:11;;;;;;;0.90;0.90;;;15.30;69.70;;;;;;5056818;28;20179;-71
2021/11/28 10:24:09;;;;;;;0.68;0.63;;;15.40;69.60;;;;;;5055858;28;20219;-71
2021/11/28 10:26:38;;;;;;;1.13;0.40;;;15.40;67.90;;;;;;5057855;28;20270;-70
2021/11/28 10:29:09;;;;;;;0.40;0.40;;;15.40;66.70;;;;;;5057789;28;20186;-70
2021/11/28 10:31:55;;;;;;;0.40;0.40;;;15.40;66.20;;;;;;5057481;28;20724;-70
2021/11/28 10:34:44;;;;;;;0.40;0.40;;;15.50;66.50;;;;;;5054338;28;20177;-71
2021/11/28 10:37:19;;;;;;;1.98;1.55;;;15.40;66.20;;;;;;5061527;28;20190;-71
2021/11/28 10:39:58;;;;;;;3.50;1.67;;;15.50;67.80;;;;;;5059529;28;20235;-71
2021/11/28 10:42:26;;;;;;;1.90;1.80;;;15.40;68.40;;;;;;5055195;28;20698;-70
2021/11/28 10:45:10;;;;;;;2.25;2.13;;;15.40;68.80;;;;;;5056984;28;20191;-70
2021/11/28 10:47:43;;;;;;;1.50;1.40;;;15.40;69.70;;;;;;5054330;28;20182;-70
2021/11/28 10:50:30;;;;;;;1.90;1.80;;;15.40;69.90;;;;;;5057484;28;20195;-70
2021/11/28 10:53:07;;;;;;;2.33;2.08;;;15.30;69.90;;;;;;5055118;28;20224;-71
2021/11/28 10:55:42;;;;;;;1.48;1.15;;;15.20;70.10;;;;;;5053816;28;20214;-70
2021/11/28 10:58:12;;;;;;;1.60;1.50;;;15.10;70.40;;;;;;5056167;28;20217;-70
2021/11/28 11:00:46;;;;;;;1.65;1.60;;;15.10;70.50;;;;;;5058848;28;20294;-70
2021/11/28 11:03:27;;;;;;;2.95;2.15;;;15.10;70.70;;;;;;5056106;28;20234;-70
2021/11/28 11:06:12;;;;;;;1.30;1.30;;;15.10;70.70;;;;;;5055079;28;20183;-70
2021/11/28 11:08:38;;;;;;;1.88;1.77;;;15.20;70.40;;;;;;5054144;28;20241;-71
2021/11/28 11:11:09;;;;;;;1.67;1.55;;;15.10;70.10;;;;;;5052819;28;20174;-70
2021/11/28 11:14:02;;;;;;;2.00;1.90;;;15.00;70.40;;;;;;5059555;28;20183;-71
2021/11/28 11:16:34;;;;;;;1.70;1.60;;;14.90;70.70;;;;;;5043921;28;20242;-70
2021/11/28 11:19:36;;;;;;;1.83;1.65;;;14.90;71.10;;;;;;5044070;28;20188;-71
2021/11/28 11:22:22;;;;;;;1.15;1.13;;;15.00;70.70;;;;;;4957607;28;20222;-70
2021/11/28 11:25:08;;;;;;;0.60;0.60;;;15.10;70.00;;;;;;4960125;28;20198;-70
2021/11/28 11:27:39;;;;;;;0.60;0.60;;;15.20;67.70;;;;;;4958391;28;20730;-70
2021/11/28 11:30:08;;;;;;;0.40;0.40;;;15.30;66.80;;;;;;4957224;28;20708;-71
2021/11/28 11:32:50;;;;;;;2.30;0.50;;;15.50;65.30;;;;;;4960072;28;20221;-71
2021/11/28 11:35:29;;;;;;;0.40;0.40;;;15.70;64.20;;;;;;4961109;28;20684;-71
2021/11/28 11:38:03;;;;;;;0.20;0.20;;;16.00;65.10;;;;;;4958834;28;20202;-70
2021/11/28 11:40:29;;;;;;;0.57;0.57;;;16.20;63.90;;;;;;4959866;28;20198;-70
2021/11/28 11:42:55;;;;;;;0.47;0.40;;;16.40;62.50;;;;;;4956808;28;20218;-70
2021/11/28 11:45:23;;;;;;;0.80;0.30;;;16.40;62.80;;;;;;4957075;28;20191;-72
2021/11/28 11:47:50;;;;;;;0.32;0.32;;;16.50;63.00;;;;;;4959558;28;20195;-73
2021/11/28 11:50:20;;;;;;;0.50;0.50;;;16.60;62.60;;;;;;4957648;28;20194;-73
2021/11/28 11:52:45;;;;;;;1.27;0.50;;;16.70;63.60;;;;;;4965842;28;20899;-73
2021/11/28 11:55:17;;;;;;;0.60;0.60;;;16.90;63.70;;;;;;4991920;28;20180;-73
2021/11/28 11:58:11;;;;;;;0.43;0.40;;;17.20;62.20;;;;;;5022448;28;20213;-74
2021/11/28 12:01:05;;;;;;;0.30;0.30;;;17.50;62.70;;;;;;5058802;28;20190;-74
2021/11/28 12:03:51;;;;;;;0.40;0.38;;;17.80;62.40;;;;;;5050458;28;20216;-74
2021/11/28 12:06:18;;;;;;;0.30;0.30;;;18.00;60.10;;;;;;5056715;28;20230;-72
2021/11/28 12:08:54;;;;;;;0.30;0.30;;;17.80;58.10;;;;;;5052958;28;20286;-73
2021/11/28 12:11:22;;;;;;;1.10;1.10;;;17.70;60.10;;;;;;5055717;28;20252;-72
2021/11/28 12:13:54;;;;;;;1.10;1.10;;;17.60;60.50;;;;;;5051578;28;20313;-73
2021/11/28 12:16:21;;;;;;;1.33;0.90;;;17.40;61.30;;;;;;5050518;28;20179;-74
2021/11/28 12:18:49;;;;;;;0.90;0.90;;;17.10;61.70;;;;;;5054352;28;20180;-72
2021/11/28 12:21:28;;;;;;;0.82;0.82;;;16.80;62.90;;;;;;5028741;28;20211;-73
2021/11/28 12:24:20;;;;;;;1.45;0.60;;;16.50;64.00;;;;;;5042641;28;20226;-72
2021/11/28 12:26:55;;;;;;;0.52;0.52;;;16.40;63.70;;;;;;5054009;28;20183;-73
2021/11/28 12:29:28;;;;;;;0.90;0.90;;;16.30;61.80;;;;;;5061097;28;20701;-73
2021/11/28 12:32:14;;;;;;;0.93;0.80;;;16.20;62.60;;;;;;5044542;28;20212;-73
2021/11/28 12:34:49;;;;;;;0.43;0.43;;;16.30;62.40;;;;;;5049514;28;20183;-72
2021/11/28 12:37:32;;;;;;;0.30;0.30;;;16.50;61.30;;;;;;5052352;28;20269;-73
2021/11/28 12:40:22;;;;;;;0.30;0.30;;;16.80;61.20;;;;;;5042900;28;20236;-74
2021/11/28 12:42:48;;;;;;;0.28;0.28;;;16.90;61.80;;;;;;5052579;28;20297;-74
2021/11/28 12:45:33;;;;;;;0.20;0.20;;;17.20;60.10;;;;;;5045846;28;20263;-72
2021/11/28 12:48:04;;;;;;;0.57;0.30;;;17.50;58.90;;;;;;5046239;28;20270;-72
2021/11/28 12:50:52;;;;;;;0.20;0.20;;;17.80;58.30;;;;;;5048415;28;20187;-72
2021/11/28 12:53:33;;;;;;;0.20;0.20;;;17.80;58.10;;;;;;5046591;28;20186;-74
2021/11/28 12:56:11;;;;;;;0.20;0.20;;;17.80;57.70;;;;;;5052716;28;20280;-73
2021/11/28 12:59:07;;;;;;;1.38;0.25;;;17.70;57.40;;;;;;5050612;28;20618;-73
2021/11/28 13:01:59;;;;;;;0.30;0.20;;;17.60;57.40;;;;;;5047433;28;20192;-73
2021/11/28 13:04:40;;;;;;;0.15;0.15;;;17.50;59.30;;;;;;5049677;28;20230;-73
2021/11/28 13:07:34;;;;;;;0.20;0.20;;;17.50;59.20;;;;;;5050376;28;20206;-73
2021/11/28 13:10:21;;;;;;;0.20;0.20;;;17.60;58.90;;;;;;5044699;28;20686;-75
2021/11/28 13:12:47;;;;;;;0.32;0.32;;;17.70;58.30;;;;;;5050626;28;20186;-75